Flinterduin — PEBT — position and weather

sailwx.info

Track history (hours):
 
Tides and Currents Weather Stations Pressure Air Temp Water Temp Dewpoint Dewpoint Depression Visibility Wind Speed Wind Dir Waves Ship Positions

Flinterduin

Last reported at 2015-Jan-26 22:33 UTC. Time now 2015-Jan-26 22:37 UTC.
Position N 46°57' E 031°60'.

Length 112 m; beam 15 m.

Type: Cargo ship. MMSI: 246484000.

Date/timePositionNaut miles runAvg speedWind from/ knotsBaromVisibWave heightAir tempDewpointWater temp
2015-Jan-26 22:33N 46°57' E 031°60'0 0.0
2015-Jan-26 21:33N 46°57' E 031°60'0 0.0
2015-Jan-26 20:33N 46°57' E 031°60'0 0.0
2015-Jan-26 19:33N 46°57' E 031°60'0 0.0
2015-Jan-26 18:32N 46°57' E 031°60'0 0.0
2015-Jan-26 17:32N 46°57' E 031°60'0 0.0
2015-Jan-26 16:32N 46°57' E 031°60'0 0.0
2015-Jan-26 15:32N 46°57' E 031°60'0 0.0
2015-Jan-26 14:32N 46°57' E 031°60'0 0.0
2015-Jan-26 13:32N 46°57' E 031°60'0 0.0
2015-Jan-26 12:32N 46°57' E 031°60'0 0.0
2015-Jan-26 11:32N 46°57' E 031°60'0 0.0
2015-Jan-26 10:32N 46°57' E 031°60'0 0.0
2015-Jan-26 09:32N 46°57' E 031°60'0 0.0
2015-Jan-26 08:32N 46°57' E 031°60'0 0.0
2015-Jan-26 07:32N 46°57' E 031°60'0 0.0
2015-Jan-26 06:32N 46°57' E 031°60'0 0.0
2015-Jan-26 05:32N 46°57' E 031°60'0 0.0
2015-Jan-26 04:32N 46°57' E 031°60'0 0.0
2015-Jan-26 03:32N 46°57' E 031°60'0 0.0
2015-Jan-26 02:32N 46°57' E 031°60'0 0.0
2015-Jan-26 01:32N 46°57' E 031°60'0 0.0
2015-Jan-26 00:32N 46°57' E 031°60'0 0.0
2015-Jan-25 23:32N 46°57' E 031°60'0 0.0
2015-Jan-25 22:32N 46°57' E 031°60'0 0.0
2015-Jan-25 21:32N 46°57' E 031°60'0 0.0
2015-Jan-25 20:33N 46°57' E 031°60'0 0.3
2015-Jan-25 19:33N 46°57' E 031°60'0 0.1
2015-Jan-25 18:33N 46°57' E 031°60'0 0.0
2015-Jan-25 17:33N 46°57' E 031°60'0 0.1
2015-Jan-25 16:33N 46°56' E 031°60'0 0.1
2015-Jan-25 15:33N 46°57' E 031°60'0 0.0
2015-Jan-25 14:33N 46°57' E 031°60'0 0.0
2015-Jan-25 13:33N 46°57' E 031°60'0 0.0
2015-Jan-25 12:33N 46°56' E 031°60'0 0.0
2015-Jan-25 11:33N 46°57' E 031°60'0 0.0
2015-Jan-25 10:33N 46°57' E 031°60'0 0.0
2015-Jan-25 09:33N 46°57' E 031°60'0 0.0
2015-Jan-25 08:33N 46°57' E 031°60'0 0.0
2015-Jan-25 07:33N 46°56' E 031°60'0 0.0
2015-Jan-25 06:33N 46°57' E 031°60'0 0.0
2015-Jan-25 05:33N 46°56' E 031°60'0 0.0
2015-Jan-25 04:33N 46°57' E 031°60'0 0.0
2015-Jan-25 03:33N 46°57' E 031°60'0 0.0
2015-Jan-25 02:33N 46°56' E 031°60'0 0.0
2015-Jan-25 01:30N 46°56' E 031°60'0 0.0
2015-Jan-25 00:33N 46°57' E 031°60'0 0.0
2015-Jan-24 23:33N 46°57' E 031°60'0 0.0
2015-Jan-24 22:33N 46°56' E 031°60'0 0.0
2015-Jan-24 21:33N 46°56' E 031°60'0 0.0
2015-Jan-24 20:33N 46°56' E 031°60'0 0.0
2015-Jan-24 19:33N 46°56' E 031°60'0 0.0
2015-Jan-24 18:33N 46°56' E 031°60'0 0.0
2015-Jan-24 17:33N 46°56' E 031°60'0 0.0
2015-Jan-24 16:33N 46°56' E 031°60'0 0.0
2015-Jan-24 15:33N 46°56' E 031°60'0 0.0
2015-Jan-24 14:33N 46°56' E 031°60'0 0.4
2015-Jan-24 13:33N 46°56' E 032°00'9 8.6
2015-Jan-24 12:33N 46°49' E 031°54'1010.4
2015-Jan-24 11:33N 46°38' E 031°55'1010.4
2015-Jan-24 10:33N 46°36' E 031°40'10 9.1
2015-Jan-24 09:31N 46°35' E 031°26'0 0.2
2015-Jan-24 08:29N 46°34' E 031°26'0 0.0
2015-Jan-24 07:11N 46°35' E 031°26'0 0.0
2015-Jan-24 06:32N 46°35' E 031°26'0 0.1
2015-Jan-24 05:32N 46°34' E 031°26'0 0.0
2015-Jan-24 03:08N 46°34' E 031°26'0 0.0
2015-Jan-24 02:26N 46°34' E 031°26'0 0.0
2015-Jan-24 01:29N 46°34' E 031°26'0 0.0
2015-Jan-24 00:32N 46°34' E 031°26'0 0.0
2015-Jan-23 23:29N 46°34' E 031°26'0 0.0
2015-Jan-23 22:32N 46°34' E 031°26'6 5.8
2015-Jan-23 21:33N 46°35' E 031°18'19 1.1
2015-Jan-23 05:07N 46°18' E 031°06'0 0.0
2015-Jan-23 04:28N 46°18' E 031°06'0 0.0
2015-Jan-23 03:25N 46°18' E 031°06'0 0.0
2015-Jan-23 02:16N 46°18' E 031°06'  
2015-Jan-20 10:26N 46°18' E 031°06'0 0.0
2015-Jan-20 05:29N 46°18' E 031°06'0 0.0
2015-Jan-20 03:26N 46°18' E 031°06'0 0.0
2015-Jan-20 01:20N 46°18' E 031°06'0 0.0
2015-Jan-20 00:13N 46°18' E 031°06'0 0.0
2015-Jan-19 09:25N 46°18' E 031°06'0 0.1
2015-Jan-19 08:25N 46°18' E 031°06'4 4.6
2015-Jan-19 07:34N 46°15' E 031°04'9 8.6
2015-Jan-19 06:33N 46°06' E 031°08'1512.0
2015-Jan-19 05:21N 45°52' E 031°02'1312.7
2015-Jan-19 04:18N 45°40' E 030°57'1012.9
2015-Jan-19 03:34N 45°30' E 030°53'25512.7
2015-Jan-18 07:26N 41°26' E 029°15'1112.6
2015-Jan-18 06:33N 41°15' E 029°10'  
Track history (hours):
 
Tides and Currents Weather Stations Pressure Air Temp Water Temp Dewpoint Dewpoint Depression Visibility Wind Speed Wind Dir Waves Ship Positions

Flinterduin

Last reported at 2015-Jan-26 22:33 UTC. Time now 2015-Jan-26 22:37 UTC.
Position N 46°57' E 031°60'.

Length 112 m; beam 15 m.

Type: Cargo ship. MMSI: 246484000.

Date/timePositionNaut miles runAvg speedWind from/ knotsBaromVisibWave heightAir tempDewpointWater temp
2015-Jan-26 22:33N 46°57' E 031°60'0 0.0
2015-Jan-26 21:33N 46°57' E 031°60'0 0.0
2015-Jan-26 20:33N 46°57' E 031°60'0 0.0
2015-Jan-26 19:33N 46°57' E 031°60'0 0.0
2015-Jan-26 18:32N 46°57' E 031°60'0 0.0
2015-Jan-26 17:32N 46°57' E 031°60'0 0.0
2015-Jan-26 16:32N 46°57' E 031°60'0 0.0
2015-Jan-26 15:32N 46°57' E 031°60'0 0.0
2015-Jan-26 14:32N 46°57' E 031°60'0 0.0
2015-Jan-26 13:32N 46°57' E 031°60'0 0.0
2015-Jan-26 12:32N 46°57' E 031°60'0 0.0
2015-Jan-26 11:32N 46°57' E 031°60'0 0.0
2015-Jan-26 10:32N 46°57' E 031°60'0 0.0
2015-Jan-26 09:32N 46°57' E 031°60'0 0.0
2015-Jan-26 08:32N 46°57' E 031°60'0 0.0
2015-Jan-26 07:32N 46°57' E 031°60'0 0.0
2015-Jan-26 06:32N 46°57' E 031°60'0 0.0
2015-Jan-26 05:32N 46°57' E 031°60'0 0.0
2015-Jan-26 04:32N 46°57' E 031°60'0 0.0
2015-Jan-26 03:32N 46°57' E 031°60'0 0.0
2015-Jan-26 02:32N 46°57' E 031°60'0 0.0
2015-Jan-26 01:32N 46°57' E 031°60'0 0.0
2015-Jan-26 00:32N 46°57' E 031°60'0 0.0
2015-Jan-25 23:32N 46°57' E 031°60'0 0.0
2015-Jan-25 22:32N 46°57' E 031°60'0 0.0
2015-Jan-25 21:32N 46°57' E 031°60'0 0.0
2015-Jan-25 20:33N 46°57' E 031°60'0 0.3
2015-Jan-25 19:33N 46°57' E 031°60'0 0.1
2015-Jan-25 18:33N 46°57' E 031°60'0 0.0
2015-Jan-25 17:33N 46°57' E 031°60'0 0.1
2015-Jan-25 16:33N 46°56' E 031°60'0 0.1
2015-Jan-25 15:33N 46°57' E 031°60'0 0.0
2015-Jan-25 14:33N 46°57' E 031°60'0 0.0
2015-Jan-25 13:33N 46°57' E 031°60'0 0.0
2015-Jan-25 12:33N 46°56' E 031°60'0 0.0
2015-Jan-25 11:33N 46°57' E 031°60'0 0.0
2015-Jan-25 10:33N 46°57' E 031°60'0 0.0
2015-Jan-25 09:33N 46°57' E 031°60'0 0.0
2015-Jan-25 08:33N 46°57' E 031°60'0 0.0
2015-Jan-25 07:33N 46°56' E 031°60'0 0.0
2015-Jan-25 06:33N 46°57' E 031°60'0 0.0
2015-Jan-25 05:33N 46°56' E 031°60'0 0.0
2015-Jan-25 04:33N 46°57' E 031°60'0 0.0
2015-Jan-25 03:33N 46°57' E 031°60'0 0.0
2015-Jan-25 02:33N 46°56' E 031°60'0 0.0
2015-Jan-25 01:30N 46°56' E 031°60'0 0.0
2015-Jan-25 00:33N 46°57' E 031°60'0 0.0
2015-Jan-24 23:33N 46°57' E 031°60'0 0.0
2015-Jan-24 22:33N 46°56' E 031°60'0 0.0
2015-Jan-24 21:33N 46°56' E 031°60'0 0.0
2015-Jan-24 20:33N 46°56' E 031°60'0 0.0
2015-Jan-24 19:33N 46°56' E 031°60'0 0.0
2015-Jan-24 18:33N 46°56' E 031°60'0 0.0
2015-Jan-24 17:33N 46°56' E 031°60'0 0.0
2015-Jan-24 16:33N 46°56' E 031°60'0 0.0
2015-Jan-24 15:33N 46°56' E 031°60'0 0.0
2015-Jan-24 14:33N 46°56' E 031°60'0 0.4
2015-Jan-24 13:33N 46°56' E 032°00'9 8.6
2015-Jan-24 12:33N 46°49' E 031°54'1010.4
2015-Jan-24 11:33N 46°38' E 031°55'1010.4
2015-Jan-24 10:33N 46°36' E 031°40'10 9.1
2015-Jan-24 09:31N 46°35' E 031°26'0 0.2
2015-Jan-24 08:29N 46°34' E 031°26'0 0.0
2015-Jan-24 07:11N 46°35' E 031°26'0 0.0
2015-Jan-24 06:32N 46°35' E 031°26'0 0.1
2015-Jan-24 05:32N 46°34' E 031°26'0 0.0
2015-Jan-24 03:08N 46°34' E 031°26'0 0.0
2015-Jan-24 02:26N 46°34' E 031°26'0 0.0
2015-Jan-24 01:29N 46°34' E 031°26'0 0.0
2015-Jan-24 00:32N 46°34' E 031°26'0 0.0
2015-Jan-23 23:29N 46°34' E 031°26'0 0.0
2015-Jan-23 22:32N 46°34' E 031°26'6 5.8
2015-Jan-23 21:33N 46°35' E 031°18'19 1.1
2015-Jan-23 05:07N 46°18' E 031°06'0 0.0
2015-Jan-23 04:28N 46°18' E 031°06'0 0.0
2015-Jan-23 03:25N 46°18' E 031°06'0 0.0
2015-Jan-23 02:16N 46°18' E 031°06'  
2015-Jan-20 10:26N 46°18' E 031°06'0 0.0
2015-Jan-20 05:29N 46°18' E 031°06'0 0.0
2015-Jan-20 03:26N 46°18' E 031°06'0 0.0
2015-Jan-20 01:20N 46°18' E 031°06'0 0.0
2015-Jan-20 00:13N 46°18' E 031°06'0 0.0
2015-Jan-19 09:25N 46°18' E 031°06'0 0.1
2015-Jan-19 08:25N 46°18' E 031°06'4 4.6
2015-Jan-19 07:34N 46°15' E 031°04'9 8.6
2015-Jan-19 06:33N 46°06' E 031°08'1512.0
2015-Jan-19 05:21N 45°52' E 031°02'1312.7
2015-Jan-19 04:18N 45°40' E 030°57'1012.9
2015-Jan-19 03:34N 45°30' E 030°53'25512.7
2015-Jan-18 07:26N 41°26' E 029°15'1112.6
2015-Jan-18 06:33N 41°15' E 029°10'  

Dump ship's entire track history